Time;durP1;ratioP1;P1;durP2;ratioP2;P2;SDS_P1;SDS_P2;PMS_P1;PMS_P2;Temp;Humidity;BMP_temperature;BMP_pressure;BME280_temperature;BME280_humidity;BME280_pressure;Samples;Min_cycle;Max_cycle;Signal;HPM_P1;HPM_P2
2023/04/15 00:00:06;;;;;;;12.00;2.50;;;2.30;38.00;;;;;;5031889;28;20089;-84
2023/04/15 00:02:32;;;;;;;4.28;1.73;;;2.30;37.60;;;;;;5022739;28;20112;-85
2023/04/15 00:04:58;;;;;;;3.55;1.85;;;2.30;37.60;;;;;;4997051;28;20030;-85
2023/04/15 00:07:24;;;;;;;5.28;1.85;;;2.20;37.50;;;;;;5015782;28;20061;-87
2023/04/15 00:09:53;;;;;;;3.42;1.70;;;2.20;37.60;;;;;;5012379;28;20037;-84
2023/04/15 00:12:20;;;;;;;2.80;1.73;;;2.20;37.80;;;;;;5012796;28;20454;-85
2023/04/15 00:14:46;;;;;;;2.53;1.60;;;2.20;38.00;;;;;;5018194;28;20018;-87
2023/04/15 00:17:12;;;;;;;3.45;1.42;;;2.10;37.90;;;;;;5016785;28;20073;-84
2023/04/15 00:19:39;;;;;;;3.20;1.80;;;2.10;38.00;;;;;;5018101;28;20025;-85
2023/04/15 00:22:05;;;;;;;4.75;1.75;;;2.10;38.00;;;;;;5010538;28;20168;-86
2023/04/15 00:24:31;;;;;;;2.80;1.42;;;2.10;38.00;;;;;;5003827;28;20029;-85
2023/04/15 00:26:58;;;;;;;4.47;2.08;;;2.10;38.00;;;;;;5017182;28;20105;-86
2023/04/15 00:29:25;;;;;;;4.23;1.50;;;2.00;38.20;;;;;;4999191;28;20193;-84
2023/04/15 00:31:51;;;;;;;5.85;2.00;;;2.00;38.30;;;;;;4999858;28;20346;-83
2023/04/15 00:34:17;;;;;;;6.88;3.65;;;2.00;38.40;;;;;;5019910;28;20033;-83
2023/04/15 00:36:43;;;;;;;3.00;1.55;;;1.90;38.40;;;;;;5000342;28;20538;-84
2023/04/15 00:39:09;;;;;;;4.15;1.67;;;1.90;38.60;;;;;;5017545;28;20117;-83
2023/04/15 00:41:38;;;;;;;3.63;2.17;;;1.90;38.60;;;;;;5003911;28;20026;-84
2023/04/15 00:44:08;;;;;;;6.30;1.67;;;1.80;38.70;;;;;;5029983;28;20028;-85
2023/04/15 00:46:38;;;;;;;3.35;1.75;;;1.90;38.90;;;;;;5004200;28;20395;-84
2023/04/15 00:49:06;;;;;;;4.07;1.80;;;1.90;38.80;;;;;;5019023;28;20587;-83
2023/04/15 00:51:34;;;;;;;;;;;1.80;38.80;;;;;;5003867;28;20026;-85
2023/04/15 00:54:03;;;;;;;4.28;1.70;;;1.80;38.70;;;;;;4984556;28;20370;-84
2023/04/15 00:56:30;;;;;;;5.28;2.38;;;1.80;39.00;;;;;;4997867;28;20408;-85
2023/04/15 00:58:58;;;;;;;5.05;1.90;;;1.70;39.20;;;;;;5020600;28;20028;-86
2023/04/15 01:01:24;;;;;;;;;;;1.60;39.20;;;;;;5036798;28;20111;-86
2023/04/15 01:03:50;;;;;;;3.30;1.48;;;1.60;39.10;;;;;;5030898;28;19912;-86
2023/04/15 01:06:17;;;;;;;4.07;1.83;;;1.60;39.30;;;;;;4991962;28;20019;-86
2023/04/15 01:08:46;;;;;;;3.57;1.67;;;1.60;39.40;;;;;;5005731;28;20052;-87
2023/04/15 01:11:13;;;;;;;2.10;1.25;;;1.60;39.50;;;;;;5028706;28;20025;-87
2023/04/15 01:13:39;;;;;;;4.50;1.98;;;1.60;39.40;;;;;;5032506;28;20357;-88
2023/04/15 01:16:06;;;;;;;2.03;1.45;;;1.50;39.40;;;;;;5020550;28;20029;-87
2023/04/15 01:18:32;;;;;;;2.00;1.33;;;1.50;39.60;;;;;;5016616;28;20029;-84
2023/04/15 01:21:03;;;;;;;2.03;1.75;;;1.50;39.70;;;;;;5030876;28;20072;-85
2023/04/15 01:23:29;;;;;;;5.72;2.92;;;1.50;39.80;;;;;;5018587;28;20117;-85
2023/04/15 01:25:55;;;;;;;5.72;2.55;;;1.50;40.00;;;;;;5016223;28;20434;-85
2023/04/15 01:28:21;;;;;;;5.07;1.73;;;1.50;39.90;;;;;;5015007;28;20029;-84
2023/04/15 01:30:48;;;;;;;5.72;2.03;;;1.40;39.90;;;;;;5019273;28;20093;-85
2023/04/15 01:33:13;;;;;;;6.28;2.38;;;1.40;39.90;;;;;;5028854;28;20028;-84
2023/04/15 01:35:39;;;;;;;3.13;1.67;;;1.40;40.10;;;;;;5015971;28;20014;-85
2023/04/15 01:38:08;;;;;;;7.25;1.73;;;1.30;40.00;;;;;;5016262;28;20026;-85
2023/04/15 01:40:34;;;;;;;6.00;2.38;;;1.30;40.00;;;;;;5007423;28;20019;-84
2023/04/15 01:43:01;;;;;;;9.30;2.38;;;1.40;40.00;;;;;;5014717;28;20057;-84
2023/04/15 01:45:27;;;;;;;7.18;2.47;;;1.30;40.10;;;;;;5011022;28;20027;-84
2023/04/15 01:47:53;;;;;;;5.43;2.70;;;1.30;40.20;;;;;;5013724;28;20023;-85
2023/04/15 01:50:20;;;;;;;5.55;2.63;;;1.30;40.10;;;;;;4994108;28;20017;-83
2023/04/15 01:52:47;;;;;;;2.88;2.00;;;1.30;40.10;;;;;;5017136;28;20033;-83
2023/04/15 01:55:13;;;;;;;5.40;1.90;;;1.20;40.20;;;;;;5017285;28;20450;-84
2023/04/15 01:57:39;;;;;;;5.72;2.50;;;1.20;40.30;;;;;;5018677;28;20063;-85
2023/04/15 02:00:09;;;;;;;5.45;2.03;;;1.20;40.30;;;;;;5016655;28;20112;-82
2023/04/15 02:02:35;;;;;;;5.25;2.08;;;1.20;40.50;;;;;;5022732;28;20042;-85
2023/04/15 02:05:01;;;;;;;3.17;1.80;;;1.20;40.40;;;;;;5007379;28;20033;-84
2023/04/15 02:07:27;;;;;;;4.68;1.98;;;1.20;40.20;;;;;;5004042;28;20030;-85
2023/04/15 02:09:53;;;;;;;5.45;2.90;;;1.10;40.20;;;;;;5022563;28;20111;-85
2023/04/15 02:12:19;;;;;;;3.58;2.10;;;1.10;40.40;;;;;;5006592;28;20052;-86
2023/04/15 02:14:46;;;;;;;4.53;2.05;;;1.10;40.50;;;;;;5031739;28;20555;-86
2023/04/15 02:17:11;;;;;;;6.35;1.90;;;1.10;40.50;;;;;;5033259;28;20063;-86
2023/04/15 02:19:39;;;;;;;3.45;1.90;;;1.10;40.40;;;;;;5022128;28;20475;-88
2023/04/15 02:22:06;;;;;;;4.53;1.90;;;1.10;40.50;;;;;;5017090;28;20026;-88
2023/04/15 02:24:32;;;;;;;5.32;1.95;;;1.10;40.60;;;;;;5022997;28;20176;-87
2023/04/15 02:26:58;;;;;;;3.65;1.90;;;1.00;40.50;;;;;;5014983;28;20054;-90
2023/04/15 02:29:24;;;;;;;3.67;1.90;;;1.00;40.50;;;;;;5016835;28;20050;-87
2023/04/15 02:31:50;;;;;;;7.13;2.25;;;1.00;40.60;;;;;;5026208;28;20104;-88
2023/04/15 02:34:17;;;;;;;5.38;1.80;;;0.90;40.70;;;;;;5002885;28;20399;-88
2023/04/15 02:36:43;;;;;;;3.75;1.95;;;1.00;40.80;;;;;;5013665;28;20559;-84
2023/04/15 02:39:09;;;;;;;6.65;1.98;;;0.90;40.90;;;;;;5018455;28;20061;-82
2023/04/15 02:41:35;;;;;;;4.15;1.67;;;0.90;40.90;;;;;;5020529;28;20031;-84
2023/04/15 02:44:01;;;;;;;5.07;1.85;;;0.90;40.90;;;;;;5022643;28;20029;-85
2023/04/15 02:46:27;;;;;;;4.63;1.92;;;1.00;40.90;;;;;;5012501;28;20411;-83
2023/04/15 02:48:53;;;;;;;6.05;2.33;;;0.90;41.00;;;;;;5015906;28;20030;-84
2023/04/15 02:51:21;;;;;;;3.92;1.73;;;0.90;40.90;;;;;;5015233;28;20038;-84
2023/04/15 02:53:48;;;;;;;4.43;1.67;;;0.90;41.50;;;;;;5003125;28;20025;-85
2023/04/15 02:56:14;;;;;;;2.57;1.57;;;0.90;41.00;;;;;;5008573;28;20402;-83
2023/04/15 02:58:41;;;;;;;3.95;1.77;;;0.90;40.90;;;;;;5015808;28;20259;-87
2023/04/15 03:01:10;;;;;;;3.53;1.70;;;0.90;41.00;;;;;;5016904;28;20437;-88
2023/04/15 03:03:36;;;;;;;4.05;2.10;;;0.90;41.00;;;;;;5000276;28;20030;-89
2023/04/15 03:06:02;;;;;;;4.63;2.67;;;0.90;41.10;;;;;;5020703;28;20124;-90
2023/04/15 03:08:28;;;;;;;3.40;2.13;;;0.90;41.10;;;;;;5020554;28;20028;-87
2023/04/15 03:10:54;;;;;;;4.13;2.47;;;0.90;41.20;;;;;;5019513;28;20060;-86
2023/04/15 03:13:20;;;;;;;8.23;2.35;;;0.90;41.30;;;;;;4991937;28;20377;-87
2023/04/15 03:15:47;;;;;;;3.35;1.88;;;0.90;41.20;;;;;;5003453;28;20159;-88
2023/04/15 03:18:13;;;;;;;3.97;2.37;;;0.90;41.40;;;;;;5015116;28;20499;-84
2023/04/15 03:20:39;;;;;;;2.80;1.70;;;1.00;41.40;;;;;;5019485;28;20053;-85
2023/04/15 03:23:05;;;;;;;5.10;2.35;;;1.00;41.60;;;;;;5027512;28;20040;-86
2023/04/15 03:25:31;;;;;;;4.38;2.25;;;1.00;41.30;;;;;;5013000;28;20077;-83
2023/04/15 03:27:57;;;;;;;7.15;2.78;;;1.00;41.20;;;;;;4993668;28;20472;-83
2023/04/15 03:30:23;;;;;;;3.17;1.92;;;1.00;41.60;;;;;;5027411;28;20030;-83
2023/04/15 03:32:49;;;;;;;2.90;1.83;;;1.00;41.30;;;;;;5019482;28;20026;-84
2023/04/15 03:35:15;;;;;;;10.45;2.60;;;1.10;41.60;;;;;;5016314;28;20158;-86
2023/04/15 03:37:41;;;;;;;12.45;3.28;;;1.10;41.60;;;;;;5016261;28;20403;-86
2023/04/15 03:40:08;;;;;;;11.10;2.72;;;1.10;41.40;;;;;;5018816;28;20018;-87
2023/04/15 03:42:34;;;;;;;10.35;3.53;;;1.10;41.60;;;;;;5027692;28;20022;-86
2023/04/15 03:45:00;;;;;;;8.60;3.45;;;1.10;41.50;;;;;;5002047;28;20404;-85
2023/04/15 03:47:26;;;;;;;10.77;3.20;;;1.20;41.60;;;;;;5007128;28;20034;-85
2023/04/15 03:49:52;;;;;;;6.13;2.85;;;1.20;41.60;;;;;;5015249;28;20097;-85
2023/04/15 03:52:17;;;;;;;5.43;2.85;;;1.30;41.60;;;;;;5016155;28;20052;-86
2023/04/15 03:54:43;;;;;;;5.95;1.90;;;1.40;41.50;;;;;;5014451;28;20026;-89
2023/04/15 03:57:10;;;;;;;5.55;3.25;;;1.40;41.00;;;;;;5017474;28;20033;-88
2023/04/15 03:59:35;;;;;;;6.63;2.35;;;1.30;41.30;;;;;;5004850;28;20022;-88
2023/04/15 04:02:05;;;;;;;5.95;4.20;;;1.40;41.10;;;;;;5001613;28;20053;-91
2023/04/15 04:04:31;;;;;;;6.18;2.78;;;1.50;41.20;;;;;;5018409;28;20030;-90
2023/04/15 04:06:57;;;;;;;4.75;2.47;;;1.50;40.90;;;;;;5003487;28;20494;-89
2023/04/15 04:09:24;;;;;;;7.45;2.92;;;1.50;40.70;;;;;;4985358;28;20049;-90
2023/04/15 04:11:50;;;;;;;6.68;3.45;;;1.60;40.60;;;;;;4989996;28;20462;-89
2023/04/15 04:14:16;;;;;;;5.53;3.13;;;1.60;40.80;;;;;;4983314;28;20030;-91
2023/04/15 04:16:42;;;;;;;13.23;2.38;;;1.70;40.50;;;;;;5023559;28;20037;-88
2023/04/15 04:19:08;;;;;;;5.60;2.95;;;1.70;40.10;;;;;;5028774;28;20032;-90
2023/04/15 04:21:35;;;;;;;9.75;4.00;;;1.70;40.50;;;;;;5026002;28;20033;-90
2023/04/15 04:24:01;;;;;;;6.35;3.20;;;1.80;40.60;;;;;;5040863;28;20024;-90
2023/04/15 04:26:27;;;;;;;8.20;2.83;;;2.00;40.40;;;;;;4996476;28;20064;-90
2023/04/15 04:28:53;;;;;;;5.53;3.40;;;2.10;40.40;;;;;;5000976;28;20030;-89
2023/04/15 04:31:19;;;;;;;5.35;3.25;;;2.20;40.40;;;;;;5015138;28;20121;-86
2023/04/15 04:33:45;;;;;;;7.78;2.78;;;2.40;39.40;;;;;;5007618;28;20030;-88
2023/04/15 04:36:11;;;;;;;4.75;2.38;;;2.50;39.00;;;;;;5030959;28;20034;-87
2023/04/15 04:38:36;;;;;;;5.80;2.58;;;2.70;39.10;;;;;;5027720;28;20041;-88
2023/04/15 04:41:03;;;;;;;6.93;2.70;;;3.10;38.80;;;;;;5028490;28;20037;-87
2023/04/15 04:43:29;;;;;;;6.88;2.75;;;3.70;38.20;;;;;;5023672;28;20026;-88
2023/04/15 04:45:55;;;;;;;8.75;3.35;;;4.30;38.20;;;;;;5037334;28;20034;-89
2023/04/15 04:48:21;;;;;;;6.45;3.10;;;4.80;36.60;;;;;;5023465;28;20024;-89
2023/04/15 04:50:47;;;;;;;12.77;4.22;;;5.00;35.50;;;;;;5024247;28;20026;-88
2023/04/15 04:53:14;;;;;;;3.75;2.45;;;5.40;35.60;;;;;;5021843;28;20428;-89
2023/04/15 04:55:41;;;;;;;6.38;2.75;;;6.00;34.60;;;;;;5009885;28;20417;-88
2023/04/15 04:58:07;;;;;;;8.65;4.65;;;6.40;34.00;;;;;;5026071;28;20068;-87
2023/04/15 05:00:33;;;;;;;5.15;2.97;;;6.30;33.10;;;;;;5011672;28;20037;-86
2023/04/15 05:02:59;;;;;;;7.88;3.63;;;6.10;33.60;;;;;;5019234;28;20049;-88
2023/04/15 05:05:25;;;;;;;6.57;3.38;;;6.20;33.80;;;;;;5015496;28;20033;-87
2023/04/15 05:07:52;;;;;;;6.95;2.90;;;6.30;33.80;;;;;;4984609;28;20035;-85
2023/04/15 05:10:18;;;;;;;10.45;3.72;;;6.30;33.50;;;;;;4972463;28;20042;-84
2023/04/15 05:12:44;;;;;;;5.75;2.85;;;6.40;33.80;;;;;;4984112;28;20049;-85
2023/04/15 05:15:10;;;;;;;10.45;3.55;;;6.30;33.60;;;;;;4972406;28;20027;-87
2023/04/15 05:17:36;;;;;;;6.00;2.35;;;6.10;33.60;;;;;;4982040;28;20051;-84
2023/04/15 05:20:02;;;;;;;10.02;3.05;;;6.00;33.50;;;;;;4963780;28;20023;-86
2023/04/15 05:22:28;;;;;;;7.97;4.03;;;5.90;33.60;;;;;;4960725;28;20512;-86
2023/04/15 05:24:55;;;;;;;6.82;2.78;;;5.90;34.00;;;;;;4972503;28;20023;-88
2023/04/15 05:27:21;;;;;;;4.50;2.78;;;5.70;33.80;;;;;;4970989;28;20043;-86
2023/04/15 05:29:48;;;;;;;5.60;2.33;;;5.50;33.80;;;;;;4983680;28;20030;-86
2023/04/15 05:32:13;;;;;;;5.03;2.55;;;5.40;34.00;;;;;;4984153;28;20046;-88
2023/04/15 05:34:40;;;;;;;7.72;2.53;;;5.30;33.90;;;;;;4981028;28;20027;-88
2023/04/15 05:37:06;;;;;;;6.75;2.45;;;5.00;33.90;;;;;;4976735;28;20042;-87
2023/04/15 05:39:32;;;;;;;3.30;2.42;;;4.90;34.20;;;;;;5012249;28;20030;-86
2023/04/15 05:41:59;;;;;;;6.20;2.70;;;4.90;34.10;;;;;;5000446;28;20049;-85
2023/04/15 05:44:28;;;;;;;8.37;2.53;;;4.80;34.50;;;;;;5000081;28;20018;-85
2023/04/15 05:46:54;;;;;;;13.65;3.90;;;5.00;34.70;;;;;;5011741;28;20022;-86
2023/04/15 05:49:20;;;;;;;17.23;3.28;;;5.30;34.80;;;;;;5024106;28;20025;-86
2023/04/15 05:51:47;;;;;;;5.95;2.72;;;5.80;34.50;;;;;;5036991;28;20061;-86
2023/04/15 05:54:16;;;;;;;5.78;2.40;;;6.20;33.80;;;;;;5010479;28;20015;-87
2023/04/15 05:56:41;;;;;;;8.00;3.42;;;6.60;33.20;;;;;;5012500;28;20042;-88
2023/04/15 05:59:07;;;;;;;12.13;4.97;;;7.30;33.00;;;;;;5022408;28;20090;-87
2023/04/15 06:01:44;;;;;;;5.18;2.33;;;7.80;31.90;;;;;;5013596;28;20058;-83
2023/04/15 06:04:10;;;;;;;12.60;6.97;;;7.90;31.40;;;;;;5003084;28;20095;-88
2023/04/15 06:06:37;;;;;;;5.95;2.72;;;7.90;31.70;;;;;;5016627;28;20036;-88
2023/04/15 06:09:05;;;;;;;5.07;2.65;;;7.90;30.90;;;;;;5019258;28;20041;-86
2023/04/15 06:11:31;;;;;;;5.43;2.90;;;7.50;31.30;;;;;;5015686;28;20053;-87
2023/04/15 06:13:56;;;;;;;9.32;3.80;;;7.50;31.70;;;;;;5012896;28;20035;-87
2023/04/15 06:16:22;;;;;;;6.15;2.63;;;7.90;31.80;;;;;;5020893;28;20061;-87
2023/04/15 06:18:48;;;;;;;9.15;2.97;;;8.30;31.70;;;;;;5018591;28;20022;-88
2023/04/15 06:21:15;;;;;;;7.55;2.70;;;9.20;41.90;;;;;;5012408;28;20022;-89
2023/04/15 06:23:41;;;;;;;8.63;3.22;;;9.10;29.80;;;;;;5014116;28;20363;-88
2023/04/15 06:26:07;;;;;;;16.77;3.95;;;9.00;30.00;;;;;;5019794;28;20045;-87
2023/04/15 06:28:33;;;;;;;10.77;3.58;;;9.50;30.40;;;;;;5017510;28;20100;-87
2023/04/15 06:31:00;;;;;;;6.25;3.25;;;10.40;29.90;;;;;;5006736;28;20018;-87
2023/04/15 06:33:26;;;;;;;12.50;2.70;;;11.40;29.30;;;;;;5029554;28;20030;-91
2023/04/15 06:35:52;;;;;;;8.15;3.60;;;11.90;28.90;;;;;;5025571;28;20018;-91
2023/04/15 06:38:18;;;;;;;6.78;3.40;;;12.60;28.30;;;;;;4999165;28;20034;-92
2023/04/15 06:40:45;;;;;;;7.35;3.25;;;12.40;28.30;;;;;;5008184;28;20022;-92
2023/04/15 06:43:11;;;;;;;6.28;2.95;;;12.50;27.90;;;;;;5034007;28;20072;-91
2023/04/15 06:45:38;;;;;;;6.15;3.28;;;12.60;27.90;;;;;;5006858;28;20126;-93
2023/04/15 06:48:04;;;;;;;9.73;3.50;;;12.60;27.40;;;;;;4997898;28;20086;-91
2023/04/15 06:50:31;;;;;;;12.25;4.55;;;12.10;27.80;;;;;;5028132;28;20034;-93
2023/04/15 06:52:59;;;;;;;5.13;2.47;;;11.80;28.00;;;;;;5015220;28;20029;-91
2023/04/15 06:55:26;;;;;;;5.45;2.30;;;12.30;28.00;;;;;;5001676;28;20022;-87
2023/04/15 06:57:53;;;;;;;4.15;2.60;;;12.50;27.10;;;;;;4991339;28;20073;-91
2023/04/15 07:00:19;;;;;;;15.93;4.00;;;11.80;27.50;;;;;;5030793;28;20028;-92
2023/04/15 07:02:47;;;;;;;4.75;2.53;;;11.40;28.40;;;;;;5018339;28;20050;-89
2023/04/15 07:05:14;;;;;;;11.48;3.20;;;11.50;28.10;;;;;;5009726;28;20065;-87
2023/04/15 07:07:40;;;;;;;12.27;4.70;;;11.70;27.90;;;;;;5014478;28;20423;-90
2023/04/15 07:10:07;;;;;;;6.18;2.65;;;11.60;28.00;;;;;;5029702;28;20116;-89
2023/04/15 07:12:34;;;;;;;15.93;4.30;;;11.30;27.70;;;;;;5011725;28;20038;-88
2023/04/15 07:14:59;;;;;;;7.65;3.40;;;11.90;28.20;;;;;;5031142;28;20085;-89
2023/04/15 07:17:28;;;;;;;17.60;4.63;;;13.20;27.90;;;;;;5034667;28;20034;-91
2023/04/15 07:19:54;;;;;;;7.13;3.13;;;14.10;26.70;;;;;;5013052;28;20027;-88
2023/04/15 07:22:24;;;;;;;4.13;2.53;;;14.00;26.10;;;;;;5024472;28;20151;-87
2023/04/15 07:24:50;;;;;;;8.05;3.38;;;13.10;26.20;;;;;;5021463;28;20038;-88
2023/04/15 07:28:06;;;;;;;;;;;;;;;;;;;;;
2023/04/15 07:30:46;;;;;;;7.75;3.42;;;12.60;27.10;;;;;;4969203;28;20126;-88
2023/04/15 07:33:22;;;;;;;10.15;4.35;;;12.40;27.30;;;;;;4963016;28;20442;-89
2023/04/15 07:35:48;;;;;;;10.80;5.10;;;12.60;27.40;;;;;;4965818;28;20065;-88
2023/04/15 07:38:21;;;;;;;8.95;3.75;;;13.20;27.10;;;;;;4962341;28;20072;-88
2023/04/15 07:40:57;;;;;;;6.53;2.60;;;14.10;26.70;;;;;;5011259;28;20038;-93
2023/04/15 07:43:24;;;;;;;6.20;2.85;;;14.30;26.70;;;;;;4984119;28;20068;-91
2023/04/15 07:45:50;;;;;;;7.50;3.33;;;14.80;25.90;;;;;;5004461;28;20494;-93
2023/04/15 07:48:17;;;;;;;6.22;2.58;;;15.00;25.30;;;;;;5012529;28;20430;-91
2023/04/15 07:50:43;;;;;;;9.38;2.95;;;14.30;25.50;;;;;;5026597;28;20038;-89
2023/04/15 07:53:16;;;;;;;5.97;2.53;;;13.80;25.70;;;;;;5022918;28;20030;-92
2023/04/15 07:55:42;;;;;;;9.52;3.55;;;13.50;25.80;;;;;;4986229;28;20510;-88
2023/04/15 07:58:17;;;;;;;5.57;3.00;;;14.10;26.30;;;;;;5026354;28;20060;-92
2023/04/15 08:00:43;;;;;;;11.85;3.25;;;14.40;25.60;;;;;;5009825;28;20032;-92
2023/04/15 08:03:12;;;;;;;7.20;3.10;;;14.00;25.80;;;;;;5021643;28;20098;-94
2023/04/15 08:05:38;;;;;;;4.55;2.70;;;14.70;25.90;;;;;;5007088;28;20030;-89
2023/04/15 08:08:06;;;;;;;6.30;2.88;;;15.60;25.20;;;;;;5009514;28;20025;-90
2023/04/15 08:10:32;;;;;;;6.43;3.00;;;;;;;;;;5020105;28;20021;-88
2023/04/15 08:12:58;;;;;;;7.15;3.17;;;17.10;24.10;;;;;;5026882;28;20033;-88
2023/04/15 08:15:25;;;;;;;8.18;2.97;;;17.70;24.10;;;;;;5015091;28;20115;-85
2023/04/15 08:17:51;;;;;;;7.57;2.35;;;17.70;23.90;;;;;;5007186;28;20038;-88
2023/04/15 08:20:18;;;;;;;4.80;2.72;;;17.60;23.70;;;;;;5004585;28;20036;-90
2023/04/15 08:22:46;;;;;;;13.68;3.45;;;;;;;;;;5009355;28;20535;-88
2023/04/15 08:25:15;;;;;;;6.78;2.90;;;18.40;50.00;;;;;;5042061;28;20045;-92
2023/04/15 08:27:41;;;;;;;9.27;2.90;;;18.00;23.50;;;;;;5038374;28;20033;-91
2023/04/15 08:30:08;;;;;;;9.77;3.20;;;18.00;23.30;;;;;;5038683;28;20041;-88
2023/04/15 08:32:34;;;;;;;9.85;2.72;;;17.80;23.50;;;;;;5028741;28;20057;-90
2023/04/15 08:35:00;;;;;;;10.07;4.18;;;18.00;23.30;;;;;;5009038;28;20018;-91
2023/04/15 08:37:26;;;;;;;6.20;2.90;;;17.30;23.10;;;;;;5017448;28;20034;-85
2023/04/15 08:39:52;;;;;;;11.23;4.80;;;17.30;23.30;;;;;;5018237;28;20095;-89
2023/04/15 08:42:26;;;;;;;10.88;4.28;;;16.70;23.60;;;;;;5012690;28;20030;-86
2023/04/15 08:44:54;;;;;;;6.15;3.33;;;16.40;23.80;;;;;;5023748;28;20032;-85
2023/04/15 08:47:21;;;;;;;6.60;3.90;;;16.30;23.80;;;;;;5007944;28;20022;-88
2023/04/15 08:49:52;;;;;;;;;;;;;;;;;;5023443;28;20046;-85
2023/04/15 08:52:19;;;;;;;9.50;2.60;;;15.70;23.60;;;;;;5001546;28;19916;-88
2023/04/15 08:54:45;;;;;;;7.47;2.67;;;15.10;23.90;;;;;;4998659;28;20029;-85
2023/04/15 08:57:12;;;;;;;11.98;4.90;;;15.20;24.10;;;;;;5030891;28;20037;-83
2023/04/15 08:59:39;;;;;;;9.13;3.78;;;15.10;23.90;;;;;;5002563;28;20403;-82
2023/04/15 09:02:05;;;;;;;7.80;3.15;;;14.60;24.30;;;;;;4993172;28;20054;-84
2023/04/15 09:04:32;;;;;;;10.88;6.07;;;14.80;24.20;;;;;;5006315;28;20369;-85
2023/04/15 09:06:58;;;;;;;11.45;5.55;;;14.20;24.50;;;;;;5024640;28;20068;-83
2023/04/15 09:09:24;;;;;;;5.93;3.15;;;13.60;24.80;;;;;;5035232;28;20030;-84
2023/04/15 09:11:50;;;;;;;5.28;2.90;;;13.30;24.90;;;;;;5018860;28;20109;-87
2023/04/15 09:14:17;;;;;;;7.18;3.83;;;13.00;24.80;;;;;;4987095;28;20018;-85
2023/04/15 09:17:00;;;;;;;11.30;3.90;;;12.30;25.10;;;;;;5029428;28;20037;-92
2023/04/15 09:19:26;;;;;;;7.70;4.20;;;12.30;25.60;;;;;;5005364;28;20268;-86
2023/04/15 09:22:03;;;;;;;7.35;2.92;;;12.20;25.80;;;;;;4991067;28;20030;-91
2023/04/15 09:24:37;;;;;;;7.87;4.20;;;12.20;25.60;;;;;;4993909;28;20066;-83
2023/04/15 09:27:08;;;;;;;4.70;2.78;;;12.00;25.80;;;;;;5007109;28;20035;-91
2023/04/15 09:29:34;;;;;;;9.95;3.67;;;12.10;25.60;;;;;;5030956;28;20038;-90
2023/04/15 09:32:12;;;;;;;7.90;2.53;;;12.20;25.50;;;;;;5000356;28;20090;-91
2023/04/15 09:34:38;;;;;;;10.02;3.83;;;12.20;25.40;;;;;;4986806;28;20046;-87
2023/04/15 09:37:04;;;;;;;4.28;2.95;;;11.80;26.10;;;;;;4994119;28;20039;-88
2023/04/15 09:39:51;;;;;;;4.30;2.83;;;11.90;25.90;;;;;;5004077;28;20848;-84
2023/04/15 09:42:25;;;;;;;6.18;3.33;;;12.00;26.10;;;;;;5007468;28;20027;-83
2023/04/15 09:44:54;;;;;;;7.00;3.25;;;12.50;25.80;;;;;;4997120;28;20101;-82
2023/04/15 09:47:28;;;;;;;8.18;3.47;;;12.60;25.90;;;;;;4997805;28;20026;-81
2023/04/15 09:49:57;;;;;;;13.40;4.18;;;13.10;25.90;;;;;;4995379;28;20065;-83
2023/04/15 09:52:23;;;;;;;10.43;4.72;;;13.10;25.50;;;;;;4991005;28;20516;-82
2023/04/15 09:54:54;;;;;;;5.80;3.00;;;13.60;25.60;;;;;;4992769;28;20079;-85
2023/04/15 09:57:20;;;;;;;8.82;3.20;;;14.40;25.30;;;;;;4995881;28;20529;-82
2023/04/15 09:59:47;;;;;;;13.27;3.63;;;14.60;24.50;;;;;;4989216;28;20027;-82
2023/04/15 10:02:13;;;;;;;6.18;3.15;;;14.10;24.70;;;;;;5017726;28;20084;-84
2023/04/15 10:04:40;;;;;;;9.30;3.17;;;14.60;25.00;;;;;;5024615;28;20010;-86
2023/04/15 10:07:11;;;;;;;9.55;3.95;;;14.90;24.50;;;;;;4993606;28;20030;-83
2023/04/15 10:09:38;;;;;;;9.85;3.00;;;15.00;24.60;;;;;;5019076;28;20050;-84
2023/04/15 10:12:05;;;;;;;7.18;3.80;;;15.50;24.30;;;;;;5019621;28;20112;-84
2023/04/15 10:14:37;;;;;;;10.30;3.43;;;15.60;24.30;;;;;;5028529;28;20030;-84
2023/04/15 10:17:04;;;;;;;7.10;3.65;;;16.20;24.70;;;;;;5006724;28;20046;-89
2023/04/15 10:19:32;;;;;;;;;;;16.60;24.00;;;;;;5006338;28;20073;-89
2023/04/15 10:21:58;;;;;;;6.30;3.40;;;16.70;24.20;;;;;;5002206;28;19895;-86
2023/04/15 10:24:25;;;;;;;5.33;2.43;;;16.30;23.00;;;;;;5015383;28;20053;-86
2023/04/15 10:26:51;;;;;;;6.15;3.20;;;15.60;23.70;;;;;;4993980;28;20263;-85
2023/04/15 10:29:18;;;;;;;7.00;4.27;;;14.40;24.10;;;;;;4994451;28;20026;-87
2023/04/15 10:31:44;;;;;;;9.18;3.75;;;13.90;24.70;;;;;;5021282;28;20117;-87
2023/04/15 10:34:11;;;;;;;8.23;4.05;;;13.20;24.70;;;;;;5018877;28;20018;-85
2023/04/15 10:36:37;;;;;;;9.27;3.72;;;12.30;25.30;;;;;;4983446;28;20053;-83
2023/04/15 10:39:36;;;;;;;5.60;2.90;;;11.80;25.70;;;;;;4977622;28;20081;-85
2023/04/15 10:42:14;;;;;;;7.60;3.83;;;11.60;26.00;;;;;;4995918;28;20034;-90
2023/04/15 10:44:50;;;;;;;7.88;3.72;;;11.30;26.00;;;;;;4984055;28;20023;-89
2023/04/15 10:47:19;;;;;;;5.80;3.50;;;11.10;26.40;;;;;;4964842;28;20030;-90
2023/04/15 10:49:55;;;;;;;8.35;3.70;;;10.80;26.20;;;;;;4987066;28;20031;-88
2023/04/15 10:52:26;;;;;;;7.70;3.92;;;10.50;26.70;;;;;;4969344;29;20063;-89
2023/04/15 10:55:20;;;;;;;7.43;3.38;;;10.40;27.10;;;;;;4967847;28;20054;-85
2023/04/15 10:57:46;;;;;;;9.43;3.30;;;10.60;26.90;;;;;;4992708;28;20097;-88
2023/04/15 11:00:25;;;;;;;10.70;4.57;;;10.40;26.90;;;;;;4989356;28;20023;-88
2023/04/15 11:02:56;;;;;;;10.25;3.40;;;10.40;27.30;;;;;;4982289;28;20098;-88
2023/04/15 11:05:41;;;;;;;6.65;3.40;;;10.60;27.10;;;;;;4975753;28;20043;-85
2023/04/15 11:08:12;;;;;;;5.25;3.15;;;10.70;27.00;;;;;;5001291;28;20049;-88
2023/04/15 11:10:37;;;;;;;6.85;3.50;;;10.80;27.00;;;;;;5030005;28;20113;-85
2023/04/15 11:13:10;;;;;;;6.65;3.38;;;10.80;26.90;;;;;;5016240;28;20034;-85
2023/04/15 11:15:41;;;;;;;12.75;4.40;;;10.70;26.70;;;;;;5007892;28;20022;-85
2023/04/15 11:18:17;;;;;;;9.45;3.83;;;10.70;26.70;;;;;;5015177;28;20034;-84
2023/04/15 11:20:46;;;;;;;8.60;3.28;;;10.90;27.00;;;;;;4995202;28;20098;-85
2023/04/15 11:23:19;;;;;;;7.47;3.90;;;11.10;26.70;;;;;;5016131;28;20018;-82
2023/04/15 11:25:48;;;;;;;6.60;4.07;;;11.20;26.80;;;;;;5009005;28;20028;-82
2023/04/15 11:28:17;;;;;;;12.98;3.78;;;11.20;26.30;;;;;;4985164;28;20027;-84
2023/04/15 11:30:43;;;;;;;6.70;2.70;;;11.10;26.70;;;;;;5031367;28;20017;-84
2023/04/15 11:33:11;;;;;;;7.28;3.90;;;11.20;26.80;;;;;;5016845;28;20418;-84
2023/04/15 11:35:44;;;;;;;4.28;3.00;;;11.20;26.30;;;;;;5016761;28;20045;-94
2023/04/15 11:38:17;;;;;;;7.18;3.53;;;11.10;26.10;;;;;;5032387;28;20514;-83
2023/04/15 11:40:49;;;;;;;11.77;4.10;;;11.00;26.10;;;;;;5035989;28;20032;-84
2023/04/15 11:43:20;;;;;;;4.07;2.45;;;11.00;26.30;;;;;;5002185;28;20048;-83
2023/04/15 11:45:51;;;;;;;8.55;3.70;;;11.10;26.10;;;;;;4998655;28;20046;-83
2023/04/15 11:48:18;;;;;;;6.15;2.97;;;10.90;26.00;;;;;;5013880;28;20479;-84
2023/04/15 11:50:46;;;;;;;5.68;2.92;;;10.90;26.10;;;;;;5011481;28;20029;-85
2023/04/15 11:53:13;;;;;;;5.28;3.03;;;10.80;26.20;;;;;;4999229;28;20523;-82
2023/04/15 11:55:47;;;;;;;9.13;3.10;;;10.80;26.50;;;;;;4981229;28;20047;-90
2023/04/15 11:58:22;;;;;;;6.75;2.95;;;10.90;26.50;;;;;;4993924;28;20042;-87
2023/04/15 12:01:04;;;;;;;6.68;3.08;;;11.00;26.30;;;;;;5024980;28;20067;-88
2023/04/15 12:03:43;;;;;;;7.22;2.92;;;11.00;26.30;;;;;;5036364;28;20038;-88
2023/04/15 12:06:26;;;;;;;6.40;3.13;;;11.00;26.50;;;;;;5006972;28;20017;-87
2023/04/15 12:09:15;;;;;;;5.78;2.70;;;11.00;26.30;;;;;;4985126;28;20066;-87
2023/04/15 12:11:48;;;;;;;4.90;3.40;;;10.80;26.30;;;;;;4930753;29;20033;-88
2023/04/15 12:14:17;;;;;;;16.17;3.28;;;10.70;26.40;;;;;;4912163;29;20032;-84
2023/04/15 12:16:48;;;;;;;7.15;3.03;;;10.70;26.60;;;;;;4912798;29;20047;-87
2023/04/15 12:19:25;;;;;;;5.57;2.92;;;10.80;26.60;;;;;;4938272;29;20059;-86
2023/04/15 12:21:53;;;;;;;7.83;3.40;;;11.00;26.70;;;;;;4918760;29;20445;-87
2023/04/15 12:24:24;;;;;;;5.40;3.10;;;11.20;26.70;;;;;;4906132;29;20036;-86
2023/04/15 12:26:58;;;;;;;7.18;3.17;;;11.00;26.50;;;;;;4933193;29;20028;-87
2023/04/15 12:29:27;;;;;;;6.75;3.55;;;10.90;27.00;;;;;;4903783;29;20529;-88
2023/04/15 12:31:58;;;;;;;10.82;3.58;;;10.90;27.00;;;;;;4916970;29;20059;-86
2023/04/15 12:34:29;;;;;;;7.63;3.75;;;11.00;26.80;;;;;;4929373;29;20462;-85
2023/04/15 12:36:56;;;;;;;7.03;3.15;;;11.10;26.60;;;;;;4917744;29;20071;-82
2023/04/15 12:39:27;;;;;;;7.45;5.25;;;10.90;26.50;;;;;;4927830;29;20428;-81
2023/04/15 12:41:53;;;;;;;11.98;3.38;;;10.80;26.60;;;;;;4935624;29;20437;-81
2023/04/15 12:44:21;;;;;;;9.10;4.43;;;10.90;26.70;;;;;;4919075;29;20031;-82
2023/04/15 12:46:47;;;;;;;;;;;11.00;27.10;;;;;;4917333;29;20024;-82
2023/04/15 12:49:14;;;;;;;11.27;3.80;;;11.20;27.20;;;;;;4984470;28;19912;-82
2023/04/15 12:51:40;;;;;;;;;;;11.20;27.30;;;;;;5016645;28;20034;-84
2023/04/15 12:54:06;;;;;;;6.15;2.88;;;11.30;27.30;;;;;;5016512;28;19916;-82
2023/04/15 12:56:32;;;;;;;6.63;3.00;;;11.20;27.20;;;;;;5030228;28;20037;-84